Kansai International Airport Osaka JP
ICAO: RJBB
IATA: KIX
Category: Large
Scheduled Services:

Elevation: 26 ft
TransAlt. 0 ft.

Airport Communications:
APP:120.25
ATIS:127.85
CLNC DEL:121.9
DEP:119.2
GND:121.6
TCA:121.1
TWR:118.2

RJBB Zoom In..

If you have problems with the map follow the link
https://www.worldairports.se/pages/airport.php?
ICAO=RJBB

Runways:

(A) RW 06L length 13123 ft width 197 ft
ILS 108.70 / hdg 58

(B) RW 06R length 11483 ft width 197 ft
ILS 108.10 / hdg 58

(C) RW 24L length 11483 ft width 197 ft
ILS 110.70 / hdg 238

(D) RW 24R length 13123 ft width 197 ft
ILS 108.50 / hdg 238

Location; RJBB
Day. 22 / Time. 12.30 Zulu
* QNH: 1021
* Temperature: 19° c. 66.2°f.
* Wind from: 120° Speed 04 kn.
Dewpoint: 14° c.
Visibility: 10 km or more.
Clouds: Few 3000 ft.
Clouds: Broken /00 ft.
No significant changes expected in the near future.

RJBB 221230Z 12004KT 080V150 9999 FEW030 BKN/// 19/14 Q1021 NOSIG


Wind From 120°
Speed 04 kn.

 
 
jpsmedia.com for Web Design worldairports.se 2018   terms of use